createdAt,value
2022-12-04T00:00:50.519Z,26.30
2022-12-04T00:03:17.480Z,27.00
2022-12-04T00:05:44.092Z,31.50
2022-12-04T00:08:10.827Z,27.57
2022-12-04T00:10:41.880Z,28.80
2022-12-04T00:13:08.606Z,27.90
2022-12-04T00:15:35.172Z,27.50
2022-12-04T00:18:01.630Z,30.33
2022-12-04T00:20:28.161Z,30.20
2022-12-04T00:22:54.736Z,27.93
2022-12-04T00:25:21.228Z,29.40
2022-12-04T00:27:47.792Z,28.97
2022-12-04T00:30:14.730Z,28.33
2022-12-04T00:32:41.387Z,25.40
2022-12-04T00:35:09.896Z,30.70
2022-12-04T00:37:36.497Z,27.90
2022-12-04T00:40:03.290Z,27.90
2022-12-04T00:42:29.810Z,27.73
2022-12-04T00:44:56.334Z,30.93
2022-12-04T00:47:22.950Z,28.10
2022-12-04T00:49:49.965Z,28.40
2022-12-04T00:52:16.817Z,27.37
2022-12-04T00:54:43.294Z,27.57
2022-12-04T00:57:09.828Z,27.93
2022-12-04T00:59:37.117Z,28.40
2022-12-04T01:02:04.083Z,27.83
2022-12-04T01:04:30.652Z,31.10
2022-12-04T01:07:01.550Z,32.93
2022-12-04T01:09:31.970Z,29.93
2022-12-04T01:11:58.641Z,29.10
2022-12-04T01:14:25.399Z,28.90
2022-12-04T01:16:52.024Z,27.57
2022-12-04T01:19:18.639Z,29.50
2022-12-04T01:21:45.235Z,28.63
2022-12-04T01:24:11.714Z,29.50
2022-12-04T01:26:38.363Z,30.80
2022-12-04T01:29:05.412Z,27.17
2022-12-04T01:31:32.224Z,30.13
2022-12-04T01:33:58.812Z,28.50
2022-12-04T01:36:26.434Z,29.57
2022-12-04T01:38:53.362Z,33.20
2022-12-04T01:41:21.432Z,31.13
2022-12-04T01:44:26.711Z,28.30
2022-12-04T01:46:57.422Z,28.00
2022-12-04T01:49:28.105Z,29.63
2022-12-04T01:51:57.819Z,30.10
2022-12-04T01:54:30.243Z,29.70
2022-12-04T01:57:03.248Z,27.40
2022-12-04T01:59:33.029Z,29.13
2022-12-04T02:02:02.683Z,29.03
2022-12-04T02:04:30.672Z,26.00
2022-12-04T02:06:57.193Z,30.50
2022-12-04T02:09:26.833Z,28.33
2022-12-04T02:11:58.046Z,27.13
2022-12-04T02:14:40.151Z,29.20
2022-12-04T02:17:06.717Z,29.00
2022-12-04T02:19:52.115Z,28.47
2022-12-04T02:22:31.421Z,29.40
2022-12-04T02:25:13.252Z,26.20
2022-12-04T02:27:39.921Z,26.73
2022-12-04T02:30:08.444Z,28.77
2022-12-04T02:32:54.189Z,26.47
2022-12-04T02:35:23.570Z,23.77
2022-12-04T02:37:52.686Z,26.30
2022-12-04T02:40:26.531Z,28.07
2022-12-04T02:43:08.397Z,26.87
2022-12-04T02:45:51.507Z,27.57
2022-12-04T02:48:19.605Z,26.00
2022-12-04T02:50:47.521Z,25.57
2022-12-04T02:53:16.961Z,28.03
2022-12-04T02:55:56.114Z,26.30
2022-12-04T02:58:26.584Z,28.67
2022-12-04T03:00:55.619Z,29.37
2022-12-04T03:03:24.573Z,28.23
2022-12-04T03:05:55.469Z,27.90
2022-12-04T03:08:24.652Z,26.20
2022-12-04T03:10:53.115Z,30.03
2022-12-04T03:13:22.997Z,27.37
2022-12-04T03:16:22.398Z,28.40
2022-12-04T03:19:09.153Z,29.13
2022-12-04T03:21:38.360Z,26.57
2022-12-04T03:24:11.379Z,29.30
2022-12-04T03:26:42.646Z,28.80
2022-12-04T03:29:22.877Z,27.47
2022-12-04T03:32:09.757Z,29.27
2022-12-04T03:34:54.745Z,27.37
2022-12-04T03:37:26.218Z,27.57
2022-12-04T03:40:02.323Z,29.10
2022-12-04T03:42:33.626Z,28.87
2022-12-04T03:45:00.095Z,30.57
2022-12-04T03:47:36.902Z,28.43
2022-12-04T03:50:23.662Z,27.27
2022-12-04T03:52:52.482Z,28.70
2022-12-04T03:55:23.458Z,27.30
2022-12-04T03:57:51.183Z,31.27
2022-12-04T04:00:18.570Z,29.13
2022-12-04T04:02:52.063Z,28.50
2022-12-04T04:05:19.249Z,28.33
2022-12-04T04:07:47.714Z,31.53
2022-12-04T04:10:16.147Z,29.80
2022-12-04T04:13:15.500Z,31.00
2022-12-04T04:16:03.308Z,25.27
2022-12-04T04:18:48.795Z,29.13
2022-12-04T04:21:35.302Z,28.40
2022-12-04T04:24:15.611Z,28.10
2022-12-04T04:26:44.968Z,26.47
2022-12-04T04:29:12.229Z,29.07
2022-12-04T04:31:57.626Z,30.60
2022-12-04T04:34:24.169Z,29.93
2022-12-04T04:36:50.633Z,31.77
2022-12-04T04:39:25.679Z,30.40
2022-12-04T04:42:15.224Z,28.20
2022-12-04T04:44:47.518Z,30.67
2022-12-04T04:47:18.624Z,29.33
2022-12-04T04:49:46.227Z,29.97
2022-12-04T04:52:12.806Z,29.97
2022-12-04T04:54:39.686Z,28.07
2022-12-04T04:57:06.216Z,28.90
2022-12-04T04:59:34.463Z,29.70
2022-12-04T05:02:01.091Z,27.67
2022-12-04T05:04:27.574Z,32.03
2022-12-04T05:06:54.347Z,30.63
2022-12-04T05:09:21.024Z,27.83
2022-12-04T05:11:47.658Z,29.90
2022-12-04T05:14:14.341Z,27.20
2022-12-04T05:16:41.844Z,31.23
2022-12-04T05:19:27.288Z,28.77
2022-12-04T05:21:54.041Z,28.20
2022-12-04T05:24:20.699Z,29.00
2022-12-04T05:26:47.292Z,30.93
2022-12-04T05:29:13.819Z,32.57
2022-12-04T05:31:40.364Z,28.30
2022-12-04T05:34:07.059Z,29.40
2022-12-04T05:36:33.595Z,25.40
2022-12-04T05:39:00.302Z,27.47
2022-12-04T05:41:26.817Z,24.67
2022-12-04T05:43:53.433Z,28.00
2022-12-04T05:46:20.014Z,27.17
2022-12-04T05:48:46.521Z,25.27
2022-12-04T05:51:13.241Z,25.93
2022-12-04T05:53:39.854Z,25.10
2022-12-04T05:56:07.588Z,25.00
2022-12-04T05:58:35.208Z,24.13
2022-12-04T06:01:07.271Z,21.40
2022-12-04T06:03:33.805Z,22.97
2022-12-04T06:06:00.397Z,20.30
2022-12-04T06:08:26.951Z,20.50
2022-12-04T06:10:53.516Z,18.45
2022-12-04T06:13:19.991Z,17.47
2022-12-04T06:15:46.551Z,18.53
2022-12-04T06:18:13.056Z,15.47
2022-12-04T06:20:40.123Z,18.23
2022-12-04T06:23:06.738Z,20.53
2022-12-04T06:25:34.394Z,17.97
2022-12-04T06:28:00.893Z,19.17
2022-12-04T06:30:27.423Z,16.03
2022-12-04T06:32:53.920Z,15.83
2022-12-04T06:35:20.424Z,17.57
2022-12-04T06:37:46.876Z,18.57
2022-12-04T06:40:13.391Z,16.00
2022-12-04T06:42:39.969Z,17.93
2022-12-04T06:45:06.916Z,13.67
2022-12-04T06:47:34.258Z,11.67
2022-12-04T06:50:00.926Z,14.33
2022-12-04T06:52:27.670Z,7.77
2022-12-04T06:54:54.433Z,11.17
2022-12-04T06:57:20.953Z,12.77
2022-12-04T06:59:47.471Z,11.33
2022-12-04T07:02:14.159Z,13.90
2022-12-04T07:04:40.750Z,14.70
2022-12-04T07:07:10.402Z,12.43
2022-12-04T07:09:36.881Z,8.80
2022-12-04T07:12:03.501Z,14.63
2022-12-04T07:14:30.001Z,12.10
2022-12-04T07:16:56.589Z,14.83
2022-12-04T07:19:23.188Z,12.57
2022-12-04T07:21:49.885Z,9.20
2022-12-04T07:24:17.266Z,9.83
2022-12-04T07:26:44.178Z,8.38
2022-12-04T07:29:10.952Z,12.83
2022-12-04T07:31:37.877Z,13.97
2022-12-04T07:34:04.593Z,18.07
2022-12-04T07:36:31.134Z,12.20
2022-12-04T07:38:58.140Z,11.07
2022-12-04T07:41:24.850Z,12.18
2022-12-04T07:43:51.498Z,13.63
2022-12-04T07:46:19.711Z,5.90
2022-12-04T07:48:46.365Z,10.90
2022-12-04T07:51:17.268Z,9.40
2022-12-04T07:53:44.295Z,8.67
2022-12-04T07:56:11.733Z,9.07
2022-12-04T07:58:38.359Z,8.60
2022-12-04T08:01:09.140Z,9.47
2022-12-04T08:03:36.019Z,7.93
2022-12-04T08:06:02.962Z,5.67
2022-12-04T08:08:29.922Z,11.03
2022-12-04T08:10:56.569Z,7.60
2022-12-04T08:13:23.682Z,10.10
2022-12-04T08:15:50.634Z,8.00
2022-12-04T08:18:17.461Z,9.63
2022-12-04T08:20:44.424Z,9.57
2022-12-04T08:23:11.405Z,11.20
2022-12-04T08:25:38.924Z,7.57
2022-12-04T08:28:05.658Z,8.10
2022-12-04T08:30:32.989Z,9.67
2022-12-04T08:32:59.565Z,12.30
2022-12-04T08:35:26.148Z,12.27
2022-12-04T08:37:52.783Z,9.97
2022-12-04T08:40:19.374Z,11.70
2022-12-04T08:42:45.966Z,8.83
2022-12-04T08:45:14.061Z,6.80
2022-12-04T08:47:40.703Z,8.13
2022-12-04T08:50:07.381Z,11.67
2022-12-04T08:52:33.968Z,9.97
2022-12-04T08:55:00.561Z,10.13
2022-12-04T08:57:27.185Z,9.50
2022-12-04T08:59:54.111Z,12.40
2022-12-04T09:02:21.012Z,16.57
2022-12-04T09:04:47.751Z,12.05
2022-12-04T09:07:14.356Z,10.57
2022-12-04T09:09:46.570Z,16.50
2022-12-04T09:12:15.024Z,7.88
2022-12-04T09:14:41.687Z,10.70
2022-12-04T09:17:08.299Z,9.75
2022-12-04T09:19:36.164Z,8.60
2022-12-04T09:22:02.904Z,11.82
2022-12-04T09:24:30.221Z,14.73
2022-12-04T09:26:56.951Z,9.23
2022-12-04T09:29:23.568Z,10.77
2022-12-04T09:31:50.281Z,16.85
2022-12-04T09:34:16.864Z,9.77
2022-12-04T09:36:43.441Z,11.20
2022-12-04T09:39:10.394Z,12.68
2022-12-04T09:41:37.136Z,13.95
2022-12-04T09:44:06.228Z,13.57
2022-12-04T09:46:37.458Z,13.98
2022-12-04T09:49:11.900Z,17.30
2022-12-04T09:51:40.498Z,13.50
2022-12-04T09:54:20.930Z,12.10
2022-12-04T09:57:01.527Z,10.38
2022-12-04T09:59:29.925Z,9.13
2022-12-04T10:01:56.565Z,10.48
2022-12-04T10:04:23.275Z,9.38
2022-12-04T10:06:54.901Z,10.90
2022-12-04T10:09:23.976Z,9.73
2022-12-04T10:12:02.359Z,10.90
2022-12-04T10:14:32.095Z,11.05
2022-12-04T10:17:08.047Z,13.77
2022-12-04T10:19:40.749Z,9.73
2022-12-04T10:22:13.809Z,10.30
2022-12-04T10:24:49.254Z,8.07
2022-12-04T10:27:36.108Z,12.33
2022-12-04T10:30:04.383Z,10.73
2022-12-04T10:32:35.307Z,5.63
2022-12-04T10:35:23.433Z,9.30
2022-12-04T10:37:53.693Z,11.50
2022-12-04T10:40:28.145Z,7.97
2022-12-04T10:43:14.583Z,5.95
2022-12-04T10:45:41.150Z,9.05
2022-12-04T10:48:13.399Z,12.60
2022-12-04T10:50:40.730Z,13.18
2022-12-04T10:53:13.461Z,9.63
2022-12-04T10:55:40.622Z,12.52
2022-12-04T10:58:20.637Z,11.63
2022-12-04T11:01:00.808Z,6.05
2022-12-04T11:03:29.075Z,9.48
2022-12-04T11:06:01.454Z,9.85
2022-12-04T11:08:35.232Z,12.13
2022-12-04T11:11:03.228Z,12.30
2022-12-04T11:13:30.118Z,16.38
2022-12-04T11:15:57.613Z,6.38
2022-12-04T11:18:31.753Z,11.20
2022-12-04T11:21:01.702Z,16.30
2022-12-04T11:23:54.564Z,10.45
2022-12-04T11:26:38.362Z,11.45
2022-12-04T11:29:05.872Z,10.82
2022-12-04T11:31:32.974Z,15.00
2022-12-04T11:34:01.348Z,8.52
2022-12-04T11:36:40.544Z,7.97
2022-12-04T11:39:13.145Z,9.32
2022-12-04T11:41:39.665Z,6.85
2022-12-04T11:44:06.790Z,17.87
2022-12-04T11:46:34.356Z,14.57
2022-12-04T11:49:02.881Z,15.02
2022-12-04T11:51:41.953Z,8.07
2022-12-04T11:54:28.926Z,15.57
2022-12-04T11:57:04.085Z,8.10
2022-12-04T11:59:49.069Z,8.50
2022-12-04T12:02:15.832Z,6.63
2022-12-04T12:05:02.801Z,14.50
2022-12-04T12:07:32.627Z,9.07
2022-12-04T12:10:03.415Z,6.90
2022-12-04T12:12:37.014Z,7.85
2022-12-04T12:15:18.813Z,5.97
2022-12-04T12:18:04.030Z,10.65
2022-12-04T12:20:34.855Z,12.40
2022-12-04T12:23:21.148Z,10.63
2022-12-04T12:25:54.134Z,10.80
2022-12-04T12:28:29.709Z,12.98
2022-12-04T12:31:07.760Z,12.18
2022-12-04T12:33:37.971Z,16.50
2022-12-04T12:36:11.799Z,12.23
2022-12-04T12:38:45.769Z,7.60
2022-12-04T12:41:14.199Z,14.00
2022-12-04T12:43:42.687Z,12.80
2022-12-04T12:46:15.336Z,12.05
2022-12-04T12:48:58.508Z,16.35
2022-12-04T12:51:33.292Z,11.87
2022-12-04T12:54:16.896Z,9.38
2022-12-04T12:56:49.792Z,12.70
2022-12-04T12:59:21.989Z,19.50
2022-12-04T13:02:00.328Z,14.63
2022-12-04T13:04:32.276Z,22.07
2022-12-04T13:07:25.544Z,17.50
2022-12-04T13:10:00.595Z,16.25
2022-12-04T13:12:27.878Z,18.37
2022-12-04T13:14:54.535Z,22.23
2022-12-04T13:17:25.965Z,14.23
2022-12-04T13:19:54.724Z,18.00
2022-12-04T13:22:24.660Z,20.55
2022-12-04T13:25:00.647Z,20.30
2022-12-04T13:27:27.186Z,19.73
2022-12-04T13:30:00.050Z,19.45
2022-12-04T13:32:45.271Z,17.87
2022-12-04T13:35:19.099Z,19.17
2022-12-04T13:37:57.874Z,18.80
2022-12-04T13:40:32.677Z,18.37
2022-12-04T13:43:17.698Z,20.13
2022-12-04T13:45:45.684Z,18.23
2022-12-04T13:48:12.274Z,18.97
2022-12-04T13:50:39.641Z,19.60
2022-12-04T13:53:06.980Z,20.27
2022-12-04T13:55:35.770Z,22.95
2022-12-04T13:58:02.415Z,24.23
2022-12-04T14:00:31.572Z,22.80
2022-12-04T14:03:00.030Z,16.00
2022-12-04T14:05:28.324Z,22.97
2022-12-04T14:08:07.618Z,22.60
2022-12-04T14:10:36.922Z,21.37
2022-12-04T14:13:14.754Z,20.77
2022-12-04T14:15:41.674Z,19.40
2022-12-04T14:18:11.401Z,20.90
2022-12-04T14:20:38.365Z,22.17
2022-12-04T14:23:09.589Z,22.60
2022-12-04T14:25:38.343Z,21.03
2022-12-04T14:28:23.820Z,20.37
2022-12-04T14:31:08.996Z,20.53
2022-12-04T14:33:57.905Z,22.53
2022-12-04T14:36:26.366Z,19.97
2022-12-04T14:39:05.390Z,18.80
2022-12-04T14:41:32.258Z,19.63
2022-12-04T14:43:59.989Z,21.23
2022-12-04T14:46:47.051Z,19.23
2022-12-04T14:49:19.823Z,18.73
2022-12-04T14:51:51.355Z,18.23
2022-12-04T14:54:28.260Z,17.42
2022-12-04T14:56:58.037Z,20.10
2022-12-04T14:59:26.635Z,17.40
2022-12-04T15:01:55.413Z,18.90
2022-12-04T15:04:31.143Z,17.63
2022-12-04T15:07:00.420Z,19.63
2022-12-04T15:09:46.733Z,20.65
2022-12-04T15:12:36.985Z,17.02
2022-12-04T15:15:12.746Z,16.47
2022-12-04T15:17:39.692Z,19.37
2022-12-04T15:20:09.941Z,19.00
2022-12-04T15:22:36.737Z,17.27
2022-12-04T15:25:03.799Z,19.65
2022-12-04T15:27:33.006Z,18.03
2022-12-04T15:30:00.702Z,18.50
2022-12-04T15:32:28.825Z,19.10
2022-12-04T15:35:00.328Z,18.40
2022-12-04T15:37:28.607Z,17.60
2022-12-04T15:39:56.488Z,17.70
2022-12-04T15:42:23.202Z,17.60
2022-12-04T15:44:51.363Z,18.23
2022-12-04T15:47:20.811Z,17.98
2022-12-04T15:49:47.385Z,19.77
2022-12-04T15:52:13.964Z,17.77
2022-12-04T15:54:45.541Z,17.00
2022-12-04T15:57:18.595Z,18.57
2022-12-04T15:59:49.565Z,18.70
2022-12-04T16:02:29.027Z,18.47
2022-12-04T16:04:55.733Z,18.25
2022-12-04T16:07:23.591Z,21.77
2022-12-04T16:10:01.035Z,21.00
2022-12-04T16:12:30.954Z,20.65
2022-12-04T16:14:57.926Z,19.47
2022-12-04T16:17:29.321Z,19.50
2022-12-04T16:19:56.479Z,18.00
2022-12-04T16:22:23.934Z,20.27
2022-12-04T16:24:51.062Z,21.43
2022-12-04T16:27:22.769Z,20.90
2022-12-04T16:29:50.067Z,20.77
2022-12-04T16:32:17.855Z,19.50
2022-12-04T16:34:44.675Z,20.70
2022-12-04T16:37:16.227Z,20.53
2022-12-04T16:39:42.834Z,21.10
2022-12-04T16:42:15.841Z,20.25
2022-12-04T16:44:43.025Z,19.03
2022-12-04T16:47:11.261Z,20.35
2022-12-04T16:49:38.550Z,18.48
2022-12-04T16:52:05.489Z,21.00
2022-12-04T16:54:32.093Z,19.00
2022-12-04T16:56:58.831Z,20.17
2022-12-04T16:59:25.519Z,18.80
2022-12-04T17:01:52.836Z,21.20
2022-12-04T17:04:19.773Z,20.20
2022-12-04T17:06:46.470Z,20.90
2022-12-04T17:09:13.616Z,20.47
2022-12-04T17:11:40.599Z,20.70
2022-12-04T17:14:07.476Z,20.13
2022-12-04T17:16:38.682Z,19.30
2022-12-04T17:19:05.537Z,20.17
2022-12-04T17:21:32.271Z,20.43
2022-12-04T17:23:59.101Z,20.63
2022-12-04T17:26:26.047Z,19.33
2022-12-04T17:28:53.009Z,19.30
2022-12-04T17:31:24.434Z,17.33
2022-12-04T17:33:51.305Z,20.05
2022-12-04T17:36:19.344Z,20.77
2022-12-04T17:38:46.019Z,22.37
2022-12-04T17:41:14.061Z,19.90
2022-12-04T17:43:41.446Z,21.47
2022-12-04T17:46:09.360Z,21.88
2022-12-04T17:48:36.284Z,21.77
2022-12-04T17:51:13.242Z,24.38
2022-12-04T17:53:40.206Z,22.93
2022-12-04T17:56:08.665Z,23.17
2022-12-04T17:58:35.816Z,22.60
2022-12-04T18:01:03.862Z,23.23
2022-12-04T18:03:30.564Z,25.07
2022-12-04T18:05:57.345Z,24.10
2022-12-04T18:08:24.135Z,26.40
2022-12-04T18:10:50.682Z,28.40
2022-12-04T18:13:17.302Z,27.40
2022-12-04T18:15:43.920Z,29.48
2022-12-04T18:18:10.473Z,27.60
2022-12-04T18:20:37.310Z,29.80
2022-12-04T18:23:03.957Z,28.38
2022-12-04T18:25:30.614Z,26.85
2022-12-04T18:27:58.431Z,30.70
2022-12-04T18:30:25.205Z,29.70
2022-12-04T18:32:54.071Z,28.40
2022-12-04T18:35:20.808Z,31.30
2022-12-04T18:37:47.513Z,27.33
2022-12-04T18:40:14.862Z,29.83
2022-12-04T18:42:41.680Z,29.40
2022-12-04T18:45:08.684Z,28.20
2022-12-04T18:47:36.464Z,27.40
2022-12-04T18:50:02.995Z,28.80
2022-12-04T18:52:29.612Z,27.70
2022-12-04T18:54:56.126Z,28.57
2022-12-04T18:57:22.754Z,29.83
2022-12-04T18:59:49.338Z,30.27
2022-12-04T19:02:15.856Z,26.77
2022-12-04T19:04:42.494Z,26.80
2022-12-04T19:07:09.135Z,26.13
2022-12-04T19:10:09.373Z,27.37
2022-12-04T19:12:22.241Z,27.17
2022-12-04T19:14:48.809Z,28.03
2022-12-04T19:17:15.891Z,29.37
2022-12-04T19:19:42.419Z,28.00
2022-12-04T19:22:09.257Z,26.60
2022-12-04T19:24:35.757Z,27.87
2022-12-04T19:27:09.910Z,29.73
2022-12-04T19:29:37.390Z,25.43
2022-12-04T19:32:03.997Z,26.93
2022-12-04T19:34:30.590Z,28.37
2022-12-04T19:36:57.322Z,26.90
2022-12-04T19:39:23.966Z,27.33
2022-12-04T19:41:50.510Z,28.80
2022-12-04T19:44:47.294Z,28.50
2022-12-04T19:47:03.602Z,25.60
2022-12-04T19:49:30.151Z,27.03
2022-12-04T19:51:56.789Z,27.63
2022-12-04T19:54:23.828Z,27.20
2022-12-04T19:56:51.326Z,25.77
2022-12-04T19:59:18.614Z,28.40
2022-12-04T20:01:45.416Z,28.87
2022-12-04T20:04:12.230Z,27.00
2022-12-04T20:06:47.649Z,26.50
2022-12-04T20:09:17.736Z,26.20
2022-12-04T20:11:44.236Z,26.93
2022-12-04T20:14:10.830Z,27.23
2022-12-04T20:16:37.972Z,27.10
2022-12-04T20:19:06.671Z,28.47
2022-12-04T20:21:33.739Z,27.43
2022-12-04T20:24:01.714Z,27.97
2022-12-04T20:26:30.444Z,28.10
2022-12-04T20:28:58.287Z,26.60
2022-12-04T20:31:26.470Z,28.70
2022-12-04T20:33:54.096Z,28.97
2022-12-04T20:36:21.945Z,26.07
2022-12-04T20:38:49.262Z,28.93
2022-12-04T20:41:16.227Z,29.17
2022-12-04T20:43:43.596Z,26.60
2022-12-04T20:46:31.440Z,27.70
2022-12-04T20:48:59.108Z,29.13
2022-12-04T20:51:26.876Z,29.80
2022-12-04T20:53:54.338Z,28.00
2022-12-04T20:56:25.934Z,29.77
2022-12-04T20:58:53.087Z,28.50
2022-12-04T21:01:20.095Z,27.53
2022-12-04T21:03:47.111Z,27.90
2022-12-04T21:06:27.296Z,27.43
2022-12-04T21:08:57.111Z,25.47
2022-12-04T21:11:27.399Z,27.73
2022-12-04T21:14:13.213Z,26.50
2022-12-04T21:16:40.235Z,26.80
2022-12-04T21:19:07.370Z,27.80
2022-12-04T21:21:35.956Z,27.90
2022-12-04T21:24:03.442Z,28.17
2022-12-04T21:26:31.446Z,28.87
2022-12-04T21:28:58.365Z,28.33
2022-12-04T21:31:27.054Z,26.27
2022-12-04T21:33:53.701Z,27.80
2022-12-04T21:36:20.318Z,29.20
2022-12-04T21:38:46.892Z,28.98
2022-12-04T21:41:33.469Z,30.27
2022-12-04T21:44:00.109Z,29.97
2022-12-04T21:46:26.718Z,27.92
2022-12-04T21:48:53.335Z,31.37
2022-12-04T21:51:40.253Z,30.67
2022-12-04T21:54:06.855Z,34.50
2022-12-04T21:56:34.060Z,33.00
2022-12-04T21:59:00.833Z,35.08
2022-12-04T22:01:27.728Z,33.13
2022-12-04T22:03:55.848Z,36.08
2022-12-04T22:06:22.943Z,34.40
2022-12-04T22:08:50.083Z,39.03
2022-12-04T22:11:17.310Z,35.88
2022-12-04T22:13:44.973Z,36.63
2022-12-04T22:16:12.832Z,36.28
2022-12-04T22:18:39.937Z,35.13
2022-12-04T22:21:07.760Z,38.28
2022-12-04T22:23:35.034Z,38.03
2022-12-04T22:26:19.823Z,37.67
2022-12-04T22:28:46.605Z,35.33
2022-12-04T22:31:14.966Z,37.63
2022-12-04T22:33:44.686Z,38.53
2022-12-04T22:36:12.512Z,38.13
2022-12-04T22:38:58.661Z,39.42
2022-12-04T22:41:25.875Z,39.20
2022-12-04T22:43:53.676Z,38.35
2022-12-04T22:46:20.877Z,41.40
2022-12-04T22:48:47.580Z,39.28
2022-12-04T22:51:15.677Z,42.47
2022-12-04T22:53:46.914Z,41.38
2022-12-04T22:56:13.574Z,38.67
2022-12-04T22:58:40.275Z,36.58
2022-12-04T23:01:14.559Z,40.85
2022-12-04T23:03:41.504Z,40.50
2022-12-04T23:06:08.878Z,39.90
2022-12-04T23:08:39.833Z,37.90
2022-12-04T23:11:07.480Z,42.25
2022-12-04T23:13:34.386Z,42.10
2022-12-04T23:16:06.257Z,42.40
2022-12-04T23:18:35.768Z,42.63
2022-12-04T23:21:09.727Z,39.60
2022-12-04T23:23:37.498Z,40.47
2022-12-04T23:26:05.273Z,41.08
2022-12-04T23:28:32.288Z,39.53
2022-12-04T23:30:59.390Z,40.45
2022-12-04T23:33:26.290Z,39.05
2022-12-04T23:35:53.715Z,40.28
2022-12-04T23:38:20.598Z,40.25
2022-12-04T23:40:47.381Z,36.50
2022-12-04T23:43:15.608Z,40.45
2022-12-04T23:45:42.678Z,39.80
2022-12-04T23:48:09.518Z,42.63
2022-12-04T23:50:36.359Z,39.17
2022-12-04T23:53:02.910Z,39.70
2022-12-04T23:55:34.025Z,42.15
2022-12-04T23:58:02.000Z,40.58
